Time;durP1;ratioP1;P1;durP2;ratioP2;P2;SDS_P1;SDS_P2;PMS_P1;PMS_P2;Temp;Humidity;BMP_temperature;BMP_pressure;BME280_temperature;BME280_humidity;BME280_pressure;Samples;Min_cycle;Max_cycle;Signal;HPM_P1;HPM_P2
2023/01/25 00:01:45;;;;;;;2.05;1.85;;;;;;;0.76;88.29;103951.63;5035652;27;96923;-28
2023/01/25 00:04:10;;;;;;;2.45;2.20;;;;;;;0.77;88.28;103955.19;5034957;28;104389;-28
2023/01/25 00:06:36;;;;;;;2.22;2.03;;;;;;;0.82;88.20;103965.13;5035777;28;97921;-29
2023/01/25 00:09:02;;;;;;;3.55;2.80;;;;;;;0.84;88.60;103957.19;5035184;27;99472;-29
2023/01/25 00:11:27;;;;;;;2.55;2.17;;;;;;;0.85;88.07;103969.66;5034376;28;96843;-28
2023/01/25 00:13:54;;;;;;;2.88;1.95;;;;;;;0.81;88.19;103959.72;5035462;27;97363;-28
2023/01/25 00:16:19;;;;;;;3.30;1.92;;;;;;;0.87;88.61;103964.38;5034389;28;100510;-28
2023/01/25 00:18:44;;;;;;;2.60;2.30;;;;;;;0.87;88.22;103948.34;5035890;27;96473;-28
2023/01/25 00:21:19;;;;;;;6.47;3.55;;;;;;;0.84;88.31;103939.41;5035895;28;96793;-29
2023/01/25 00:23:45;;;;;;;4.70;2.42;;;;;;;0.85;88.07;103933.19;5032878;28;100933;-30
2023/01/25 00:26:10;;;;;;;3.85;2.97;;;;;;;0.89;88.25;103934.19;5035416;28;97885;-29
2023/01/25 00:28:36;;;;;;;3.30;2.58;;;;;;;0.84;88.27;103933.16;5035859;28;96619;-29
2023/01/25 00:31:03;;;;;;;2.53;1.67;;;;;;;0.89;88.17;103941.31;5035329;28;96793;-28
2023/01/25 00:34:17;;;;;;;4.43;3.03;;;;;;;0.90;88.61;103929.75;5033621;28;99369;-28
2023/01/25 00:36:43;;;;;;;3.60;2.75;;;;;;;0.91;88.29;103927.16;4987800;28;99104;-28
2023/01/25 00:39:12;;;;;;;1.67;1.48;;;;;;;0.88;88.13;103912.78;5034096;28;96788;-29
2023/01/25 00:41:38;;;;;;;3.17;2.38;;;;;;;0.83;87.81;103910.94;5034352;28;96925;-28
2023/01/25 00:44:04;;;;;;;3.35;1.80;;;;;;;0.79;88.03;103908.13;5033621;28;100573;-28
2023/01/25 00:46:29;;;;;;;2.97;2.08;;;;;;;0.76;88.25;103908.00;5035011;28;97240;-29
2023/01/25 00:48:54;;;;;;;2.90;2.60;;;;;;;0.76;88.09;103914.28;5034909;27;96456;-28
2023/01/25 00:51:21;;;;;;;2.75;2.13;;;;;;;0.71;88.32;103909.66;5034834;28;96842;-30
2023/01/25 00:53:46;;;;;;;5.97;4.45;;;;;;;0.71;88.19;103907.88;5033462;28;98982;-28
2023/01/25 00:56:11;;;;;;;5.35;2.53;;;;;;;0.69;88.09;103901.63;5034855;28;100719;-29
2023/01/25 00:58:37;;;;;;;9.90;3.00;;;;;;;0.70;88.48;103903.41;5035014;28;96463;-28
2023/01/25 01:01:03;;;;;;;3.97;2.83;;;;;;;0.71;88.44;103910.53;5034701;28;98447;-28
2023/01/25 01:03:28;;;;;;;2.88;1.98;;;;;;;0.74;88.16;103916.00;5033442;28;100748;-29
2023/01/25 01:06:02;;;;;;;3.33;1.42;;;;;;;0.76;88.32;103911.59;5034972;28;99141;-30
2023/01/25 01:08:28;;;;;;;2.92;1.95;;;;;;;0.76;88.47;103908.94;5033574;28;96621;-28
2023/01/25 01:11:00;;;;;;;3.20;2.45;;;;;;;0.73;88.50;103906.16;5035192;28;96922;-28
2023/01/25 01:13:28;;;;;;;3.95;2.20;;;;;;;0.75;88.53;103903.56;5032553;28;100792;-29
2023/01/25 01:15:54;;;;;;;5.22;2.40;;;;;;;0.77;88.74;103904.50;5033188;28;100922;-28
2023/01/25 01:18:19;;;;;;;3.60;2.75;;;;;;;0.77;88.39;103905.41;5033567;28;96589;-29
2023/01/25 01:20:49;;;;;;;4.10;3.53;;;;;;;0.77;88.40;103899.16;5034898;28;96800;-29
2023/01/25 01:23:15;;;;;;;2.33;1.92;;;;;;;0.78;88.64;103900.97;5032362;28;101000;-29
2023/01/25 01:25:40;;;;;;;3.15;2.22;;;;;;;0.79;88.65;103903.69;5033113;28;100856;-28
2023/01/25 01:28:05;;;;;;;4.18;2.85;;;;;;;0.77;88.74;103902.72;5034898;27;96589;-30
2023/01/25 01:30:31;;;;;;;4.05;2.97;;;;;;;0.77;88.43;103905.41;5034901;28;99462;-28
2023/01/25 01:32:56;;;;;;;5.35;3.17;;;;;;;0.78;88.65;103906.28;5033904;28;115125;-28
2023/01/25 01:35:21;;;;;;;3.15;2.83;;;;;;;0.78;88.27;103907.19;5034321;28;104529;-28
2023/01/25 01:37:47;;;;;;;4.18;2.58;;;;;;;0.78;88.43;103899.19;5034156;27;99237;-28
2023/01/25 01:40:15;;;;;;;4.13;2.97;;;;;;;0.78;88.53;103900.97;5034299;28;96930;-28
2023/01/25 01:43:02;;;;;;;4.78;2.67;;;;;;;0.73;88.04;103906.16;5032669;28;100959;-28
2023/01/25 01:45:47;;;;;;;3.55;2.75;;;;;;;0.71;88.09;103904.31;5032623;28;100726;-29
2023/01/25 01:48:31;;;;;;;4.10;3.30;;;;;;;0.71;88.58;103907.88;5033171;28;96728;-28
2023/01/25 01:51:01;;;;;;;1.35;1.27;;;;;;;0.71;88.39;103910.53;5034537;28;96749;-28
2023/01/25 01:53:29;;;;;;;4.03;2.40;;;;;;;0.66;88.29;103901.50;5032424;28;101008;-28
2023/01/25 01:56:01;;;;;;;2.72;1.92;;;;;;;0.68;88.43;103906.91;5032937;28;100703;-28
2023/01/25 01:58:28;;;;;;;3.88;2.58;;;;;;;0.71;88.52;103912.31;5032995;28;96672;-28
2023/01/25 02:00:54;;;;;;;2.83;2.03;;;;;;;0.76;88.66;103905.34;5034391;28;96694;-29
2023/01/25 02:03:19;;;;;;;4.07;2.17;;;;;;;0.75;88.76;103904.44;5033561;28;98053;-28
2023/01/25 02:05:57;;;;;;;1.77;1.65;;;;;;;0.77;88.61;103908.06;5033915;28;97869;-28
2023/01/25 02:08:25;;;;;;;2.60;2.35;;;;;;;0.77;88.38;103910.72;5032927;28;96585;-28
2023/01/25 02:10:50;;;;;;;3.72;2.80;;;;;;;0.72;87.90;103903.47;5032728;28;96850;-29
2023/01/25 02:13:18;;;;;;;2.78;2.33;;;;;;;0.68;88.11;103899.78;5032546;28;100739;-28
2023/01/25 02:15:49;;;;;;;3.38;2.08;;;;;;;0.67;88.47;103897.06;5032532;28;101243;-28
2023/01/25 02:18:16;;;;;;;;;;;;;;;0.70;88.55;103900.75;5033113;28;96754;-28
2023/01/25 02:20:44;;;;;;;1.23;1.05;;;;;;;0.68;88.54;103888.22;5034547;28;96863;-30
2023/01/25 02:23:31;;;;;;;3.75;1.80;;;;;;;0.67;88.30;103894.41;5031973;28;100797;-27
2023/01/25 02:26:00;;;;;;;2.13;1.92;;;;;;;0.64;88.27;103887.22;5035077;28;97400;-28
2023/01/25 02:28:30;;;;;;;3.17;2.53;;;;;;;0.62;88.34;103891.59;5035404;28;96607;-28
2023/01/25 02:30:56;;;;;;;2.08;1.90;;;;;;;0.59;88.26;103889.75;5035945;28;96639;-29
2023/01/25 02:33:23;;;;;;;3.00;2.70;;;;;;;0.55;88.32;103890.53;5037174;27;97928;-29
2023/01/25 02:35:55;;;;;;;3.83;2.58;;;;;;;0.56;88.35;103883.44;5035603;28;100844;-29
2023/01/25 02:38:21;;;;;;;3.85;2.20;;;;;;;0.56;88.69;103888.78;5036084;28;96683;-28
2023/01/25 02:40:53;;;;;;;4.65;2.92;;;;;;;0.58;88.48;103879.97;5037371;28;96731;-29
2023/01/25 02:43:18;;;;;;;5.75;2.92;;;;;;;0.55;88.19;103876.28;5035634;28;100788;-28
2023/01/25 02:45:48;;;;;;;1.92;1.60;;;;;;;0.52;88.21;103874.44;5037075;28;99263;-28
2023/01/25 02:48:13;;;;;;;3.75;3.30;;;;;;;0.49;88.52;103871.69;5037206;28;96560;-28
2023/01/25 02:50:40;;;;;;;3.90;2.65;;;;;;;0.50;88.30;103864.59;5036919;28;96819;-28
2023/01/25 02:53:05;;;;;;;3.10;2.58;;;;;;;0.49;88.35;103861.03;5034803;28;100884;-28
2023/01/25 02:55:30;;;;;;;3.00;2.58;;;;;;;0.51;88.48;103856.63;5036804;28;101715;-29
2023/01/25 02:57:56;;;;;;;4.18;2.70;;;;;;;0.52;88.01;103863.75;5036530;28;100145;-28
2023/01/25 03:00:21;;;;;;;5.00;4.28;;;;;;;0.46;88.45;103862.72;5037213;28;96791;-30
2023/01/25 03:02:46;;;;;;;4.75;2.97;;;;;;;0.37;88.15;103861.56;5035521;28;98175;-28
2023/01/25 03:05:12;;;;;;;5.22;3.83;;;;;;;0.31;88.11;103856.06;5036596;28;97959;-29
2023/01/25 03:07:37;;;;;;;4.53;3.15;;;;;;;0.33;88.18;103858.75;5036709;28;96503;-28
2023/01/25 03:10:02;;;;;;;3.30;2.83;;;;;;;0.33;88.43;103854.31;5037016;28;96819;-29
2023/01/25 03:12:28;;;;;;;2.85;2.58;;;;;;;0.32;88.09;103856.97;5036385;27;99525;-29
2023/01/25 03:14:53;;;;;;;2.38;2.05;;;;;;;0.32;88.37;103846.31;5036678;28;97448;-28
2023/01/25 03:17:18;;;;;;;2.63;2.13;;;;;;;0.31;88.66;103850.72;5036278;28;96809;-29
2023/01/25 03:19:44;;;;;;;2.40;2.20;;;;;;;0.37;89.00;103848.22;5036811;28;96801;-28
2023/01/25 03:22:09;;;;;;;2.35;2.15;;;;;;;0.38;88.82;103842.06;5036182;28;105916;-28
2023/01/25 03:24:35;;;;;;;5.30;2.63;;;;;;;0.44;88.68;103846.66;5035828;28;97777;-29
2023/01/25 03:27:13;;;;;;;2.53;2.30;;;;;;;0.47;88.62;103840.50;5036177;27;96615;-29
2023/01/25 03:29:40;;;;;;;2.67;2.15;;;;;;;0.46;88.44;103836.94;5035312;28;96751;-28
2023/01/25 03:32:05;;;;;;;4.07;1.90;;;;;;;0.37;88.10;103823.34;5034786;28;100981;-28
2023/01/25 03:34:31;;;;;;;3.10;2.10;;;;;;;0.38;88.58;103828.72;5036670;28;97888;-29
2023/01/25 03:36:56;;;;;;;1.70;1.52;;;;;;;0.33;88.25;103825.00;5035622;27;96571;-30
2023/01/25 03:39:21;;;;;;;1.95;1.60;;;;;;;0.26;88.55;103816.78;5035866;28;96938;-28
2023/01/25 03:41:47;;;;;;;2.17;1.70;;;;;;;0.29;88.63;103824.91;5035439;27;99350;-28
2023/01/25 03:44:12;;;;;;;2.35;2.05;;;;;;;0.25;88.66;103818.56;5035648;28;106068;-28
2023/01/25 03:46:39;;;;;;;3.30;2.45;;;;;;;0.30;88.54;103816.91;5036379;27;96476;-29
2023/01/25 03:49:04;;;;;;;5.05;2.22;;;;;;;0.30;88.63;103811.59;5034882;28;96781;-29
2023/01/25 03:51:29;;;;;;;3.70;2.58;;;;;;;0.35;88.74;103815.28;5035712;27;98819;-28
2023/01/25 03:53:55;;;;;;;2.78;2.25;;;;;;;0.34;88.66;103810.81;5035832;28;97318;-28
2023/01/25 03:56:20;;;;;;;1.80;1.52;;;;;;;0.31;88.42;103801.81;5035950;27;96511;-28
2023/01/25 03:58:46;;;;;;;4.28;3.33;;;;;;;0.28;88.31;103812.41;5036224;28;96831;-28
2023/01/25 04:01:11;;;;;;;1.67;1.58;;;;;;;0.24;88.39;103815.84;5035870;28;97471;-28
2023/01/25 04:03:37;;;;;;;2.45;1.83;;;;;;;0.25;88.46;103812.31;5035849;28;97847;-28
2023/01/25 04:06:04;;;;;;;2.50;1.50;;;;;;;0.22;88.16;103813.13;5035443;27;96529;-28
2023/01/25 04:08:30;;;;;;;3.40;2.60;;;;;;;0.23;88.41;103822.03;5034298;28;96966;-28
2023/01/25 04:10:59;;;;;;;3.20;2.70;;;;;;;0.23;88.63;103809.59;5033994;28;101301;-28
2023/01/25 04:13:25;;;;;;;3.70;1.95;;;;;;;0.23;88.68;103812.25;5034144;28;100887;-28
2023/01/25 04:15:50;;;;;;;4.32;3.20;;;;;;;0.28;88.43;103820.41;5035671;27;96531;-28
2023/01/25 04:18:17;;;;;;;3.25;2.97;;;;;;;0.29;88.68;103815.13;5035761;28;96854;-29
2023/01/25 04:20:42;;;;;;;2.58;2.22;;;;;;;0.34;88.48;103807.25;5034109;28;100871;-29
2023/01/25 04:23:08;;;;;;;2.92;2.55;;;;;;;0.36;88.76;103800.22;5035694;28;96714;-28
2023/01/25 04:25:35;;;;;;;1.40;1.23;;;;;;;0.38;88.67;103802.06;5035340;27;96451;-29
2023/01/25 04:28:00;;;;;;;3.65;2.22;;;;;;;0.40;88.71;103800.31;5034238;28;96823;-30
2023/01/25 04:30:25;;;;;;;2.72;2.42;;;;;;;0.39;88.41;103800.28;5034976;27;97432;-28
2023/01/25 04:32:51;;;;;;;3.45;2.63;;;;;;;0.39;88.53;103811.84;5035419;28;97455;-29
2023/01/25 04:35:16;;;;;;;5.03;3.00;;;;;;;0.39;88.37;103801.19;5035589;28;96563;-28
2023/01/25 04:37:42;;;;;;;4.32;3.45;;;;;;;0.39;88.53;103803.84;5035494;28;96764;-29
2023/01/25 04:40:08;;;;;;;3.47;2.17;;;;;;;0.41;88.25;103793.25;5034989;28;97455;-28
2023/01/25 04:42:34;;;;;;;2.55;2.30;;;;;;;0.38;88.11;103794.06;5034845;28;100525;-29
2023/01/25 04:44:59;;;;;;;2.80;1.65;;;;;;;0.34;88.06;103789.50;5035441;27;96586;-28
2023/01/25 04:47:24;;;;;;;5.25;2.80;;;;;;;0.30;88.26;103790.25;5035967;28;96758;-28
2023/01/25 04:49:50;;;;;;;4.32;3.55;;;;;;;0.31;88.45;103778.75;5034794;27;97868;-29
2023/01/25 04:52:15;;;;;;;3.30;1.80;;;;;;;0.26;88.06;103780.34;5034576;28;101305;-28
2023/01/25 04:54:40;;;;;;;3.45;2.10;;;;;;;0.23;87.92;103777.63;5034505;28;96546;-29
2023/01/25 04:57:06;;;;;;;3.42;3.13;;;;;;;0.28;88.74;103775.09;5034890;28;101626;-28
2023/01/25 04:59:31;;;;;;;12.82;4.63;;;;;;;0.26;88.23;103768.81;5034870;27;97700;-29
2023/01/25 05:01:56;;;;;;;4.15;3.33;;;;;;;0.23;88.42;103769.63;5034826;28;97838;-29
2023/01/25 05:04:22;;;;;;;3.25;2.92;;;;;;;0.20;88.56;103769.53;5035216;27;96432;-28
2023/01/25 05:06:47;;;;;;;4.43;3.58;;;;;;;0.25;88.60;103773.25;5034481;28;104254;-28
2023/01/25 05:09:12;;;;;;;2.55;2.08;;;;;;;0.21;88.33;103771.34;5034914;28;97833;-28
2023/01/25 05:11:38;;;;;;;4.13;3.15;;;;;;;0.25;88.47;103767.91;5034972;28;107748;-29
2023/01/25 05:14:03;;;;;;;4.43;3.22;;;;;;;0.28;88.71;103767.97;5035474;27;96452;-29
2023/01/25 05:16:28;;;;;;;4.53;2.58;;;;;;;0.28;88.46;103767.09;5034505;28;100452;-28
2023/01/25 05:18:54;;;;;;;3.30;2.58;;;;;;;0.31;88.38;103762.75;5034089;28;100351;-28
2023/01/25 05:24:04;;;;;;;3.53;2.67;;;;;;;0.27;88.56;103758.19;5034490;28;96765;-28
2023/01/25 05:29:13;;;;;;;2.92;2.25;;;;;;;0.30;88.64;103765.38;5034637;28;97048;-28
2023/01/25 05:31:38;;;;;;;6.88;3.15;;;;;;;0.32;88.46;103767.22;5034324;28;99282;-29
2023/01/25 05:34:04;;;;;;;4.32;2.55;;;;;;;0.28;88.69;103764.41;5034594;27;96717;-29
2023/01/25 05:36:29;;;;;;;3.65;2.88;;;;;;;0.28;88.37;103760.00;5035374;28;97012;-30
2023/01/25 05:38:54;;;;;;;4.05;2.83;;;;;;;0.29;88.59;103759.16;5034509;27;98048;-28
2023/01/25 05:41:20;;;;;;;3.35;2.28;;;;;;;0.29;88.70;103759.16;5034179;28;99213;-28
2023/01/25 05:43:48;;;;;;;3.25;2.85;;;;;;;0.29;88.48;103756.47;5034296;28;96724;-28
2023/01/25 05:46:13;;;;;;;2.47;2.13;;;;;;;0.30;88.41;103754.72;5034206;28;96942;-29
2023/01/25 05:48:39;;;;;;;3.42;3.03;;;;;;;0.29;88.21;103761.81;5034210;27;97970;-28
2023/01/25 05:51:04;;;;;;;2.58;2.38;;;;;;;0.29;88.53;103751.16;5034242;28;97281;-28
2023/01/25 05:53:30;;;;;;;3.90;2.92;;;;;;;0.29;88.67;103761.81;5034103;27;97835;-29
2023/01/25 05:55:55;;;;;;;2.10;1.90;;;;;;;0.25;88.58;103751.91;5034513;28;96812;-29
2023/01/25 05:58:20;;;;;;;4.93;3.50;;;;;;;0.18;88.13;103765.94;5034426;28;97488;-28
2023/01/25 06:00:46;;;;;;;2.33;1.38;;;;;;;0.12;88.79;103769.31;5035044;27;98737;-30
2023/01/25 06:03:11;;;;;;;2.33;2.10;;;;;;;0.10;88.77;103764.81;5037363;27;96533;-28
2023/01/25 06:05:36;;;;;;;2.97;2.55;;;;;;;0.07;88.86;103770.03;5037726;28;96561;-29
2023/01/25 06:08:02;;;;;;;3.28;2.78;;;;;;;0.05;88.61;103764.69;5037000;27;99829;-29
2023/01/25 06:10:27;;;;;;;2.92;1.88;;;;;;;0.11;88.81;103756.84;5037701;28;97859;-28
2023/01/25 06:12:59;;;;;;;1.95;1.73;;;;;;;0.18;88.99;103764.16;5037708;27;96555;-28
2023/01/25 06:15:25;;;;;;;2.58;1.02;;;;;;;0.23;88.93;103768.72;5037857;28;96819;-29
2023/01/25 06:17:55;;;;;;;1.95;1.77;;;;;;;0.25;89.07;103761.69;5035652;28;101352;-29
2023/01/25 06:20:20;;;;;;;2.88;2.03;;;;;;;0.27;88.77;103767.97;5035733;28;101384;-28
2023/01/25 06:22:52;;;;;;;3.83;2.65;;;;;;;0.30;88.73;103768.94;5037484;27;96744;-28
2023/01/25 06:25:18;;;;;;;4.10;2.88;;;;;;;0.31;88.83;103762.75;5036169;28;96872;-28
2023/01/25 06:27:43;;;;;;;3.80;2.70;;;;;;;0.32;89.04;103767.22;5037408;27;97835;-28
2023/01/25 06:30:09;;;;;;;4.80;2.60;;;;;;;0.31;88.32;103768.09;5037099;28;99288;-28
2023/01/25 06:32:35;;;;;;;4.18;3.13;;;;;;;0.30;88.54;103771.59;5035413;28;96563;-28
2023/01/25 06:35:00;;;;;;;2.92;2.22;;;;;;;0.25;88.25;103764.34;5037530;28;96797;-29
2023/01/25 06:37:25;;;;;;;2.70;2.00;;;;;;;0.19;87.74;103763.31;5037143;27;97864;-30
2023/01/25 06:39:51;;;;;;;3.17;2.10;;;;;;;0.22;88.07;103764.28;5036882;28;99052;-28
2023/01/25 06:42:16;;;;;;;5.82;4.03;;;;;;;0.15;87.97;103755.19;5037277;27;96456;-28
2023/01/25 06:44:41;;;;;;;3.88;2.40;;;;;;;0.18;88.20;103763.25;5037355;28;96876;-28
2023/01/25 06:47:11;;;;;;;3.63;2.30;;;;;;;0.15;88.21;103757.84;5037018;28;97942;-28
2023/01/25 06:49:36;;;;;;;1.88;1.73;;;;;;;0.14;88.37;103758.69;5035910;28;98954;-29
2023/01/25 06:52:02;;;;;;;3.65;2.03;;;;;;;0.18;88.23;103760.59;5036882;27;96486;-29
2023/01/25 06:54:27;;;;;;;5.00;2.25;;;;;;;0.15;88.36;103758.75;5035943;28;96807;-28
2023/01/25 06:56:53;;;;;;;2.65;2.22;;;;;;;0.07;88.15;103757.63;5036426;28;97639;-28
2023/01/25 06:59:18;;;;;;;2.75;1.90;;;;;;;0.03;88.20;103754.84;5036735;28;97968;-28
2023/01/25 07:01:43;;;;;;;3.33;2.25;;;;;;;-0.02;88.32;103758.25;5036984;28;96458;-28
2023/01/25 07:04:11;;;;;;;3.40;1.92;;;;;;;0.03;88.46;103765.50;5036985;28;96771;-29
2023/01/25 07:06:36;;;;;;;3.35;2.90;;;;;;;0.03;88.41;103768.16;5034994;28;100764;-29
2023/01/25 07:09:04;;;;;;;6.53;3.22;;;;;;;0.04;88.36;103767.28;5036732;28;97666;-29
2023/01/25 07:11:29;;;;;;;3.72;2.63;;;;;;;0.05;88.24;103762.00;5035357;27;96732;-29
2023/01/25 07:13:55;;;;;;;3.00;2.70;;;;;;;0.03;88.22;103752.16;5037154;28;96770;-28
2023/01/25 07:16:20;;;;;;;2.60;2.13;;;;;;;0.08;88.39;103758.53;5036459;27;97957;-28
2023/01/25 07:18:46;;;;;;;4.82;3.60;;;;;;;0.11;88.21;103754.19;5035940;28;99141;-28
2023/01/25 07:21:13;;;;;;;1.70;1.17;;;;;;;0.10;88.28;103754.16;5034151;28;96632;-29
2023/01/25 07:23:38;;;;;;;3.53;2.33;;;;;;;0.11;88.48;103756.84;5035255;27;96912;-28
2023/01/25 07:26:05;;;;;;;5.38;3.05;;;;;;;0.14;88.10;103756.97;5035959;27;99134;-28
2023/01/25 07:28:32;;;;;;;2.60;1.67;;;;;;;0.09;88.25;103753.22;5036190;28;97823;-28
2023/01/25 07:31:07;;;;;;;4.30;3.17;;;;;;;0.10;88.20;103749.72;5035131;28;96604;-29
2023/01/25 07:33:33;;;;;;;2.03;1.65;;;;;;;0.13;88.55;103747.13;5034950;28;96920;-28
2023/01/25 07:36:03;;;;;;;3.55;3.25;;;;;;;0.10;87.96;103748.81;5034586;28;101002;-29
2023/01/25 07:38:28;;;;;;;6.15;3.78;;;;;;;0.09;88.15;103739.00;5036341;28;99213;-28
2023/01/25 07:40:54;;;;;;;2.80;2.55;;;;;;;0.07;87.68;103743.38;5036401;27;96597;-28
2023/01/25 07:43:19;;;;;;;5.30;3.17;;;;;;;0.03;87.82;103733.53;5036137;28;96804;-29
2023/01/25 07:45:47;;;;;;;2.28;2.10;;;;;;;0.03;87.95;103736.19;5035249;28;99293;-28
2023/01/25 07:48:13;;;;;;;3.53;2.22;;;;;;;-0.03;87.73;103736.88;5034557;28;98965;-28
2023/01/25 07:50:40;;;;;;;2.35;2.15;;;;;;;-0.03;88.03;103727.13;5034838;28;96644;-28
2023/01/25 07:53:06;;;;;;;3.03;1.92;;;;;;;0.02;88.43;103721.94;5034568;28;96869;-29
2023/01/25 07:55:31;;;;;;;2.40;2.17;;;;;;;0.04;88.20;103722.00;5035894;28;97853;-28
2023/01/25 07:57:56;;;;;;;2.70;1.70;;;;;;;0.08;88.44;103723.88;5035861;28;97799;-29
2023/01/25 08:00:22;;;;;;;8.00;4.03;;;;;;;0.07;88.40;103712.34;5035867;27;96613;-28
2023/01/25 08:02:51;;;;;;;3.42;2.55;;;;;;;0.05;88.30;103708.72;5036470;28;96780;-28
2023/01/25 08:05:17;;;;;;;2.42;1.88;;;;;;;0.12;88.32;103716.03;5034045;28;101147;-29
2023/01/25 08:07:42;;;;;;;2.72;2.35;;;;;;;0.09;88.01;103710.59;5034208;28;100781;-29
2023/01/25 08:10:08;;;;;;;4.20;2.75;;;;;;;0.10;88.23;103716.84;5035640;27;96457;-30
2023/01/25 08:12:33;;;;;;;3.95;2.70;;;;;;;0.07;88.45;103715.00;5034295;28;96929;-28
2023/01/25 08:14:59;;;;;;;2.95;2.15;;;;;;;0.11;88.42;103716.88;5035540;28;101085;-28
2023/01/25 08:17:30;;;;;;;2.85;2.53;;;;;;;0.08;88.16;103713.22;5034043;28;98965;-28
2023/01/25 08:19:57;;;;;;;3.10;2.53;;;;;;;0.05;88.59;103719.38;5034506;28;96583;-30
2023/01/25 08:22:22;;;;;;;6.10;3.25;;;;;;;0.08;88.75;103713.22;5033954;28;96808;-29
2023/01/25 08:24:48;;;;;;;4.25;2.15;;;;;;;0.08;88.59;103714.13;5033869;27;98734;-28
2023/01/25 08:27:14;;;;;;;3.92;3.25;;;;;;;0.11;88.58;103715.97;5035624;28;99337;-28
2023/01/25 08:29:39;;;;;;;3.53;3.17;;;;;;;0.15;88.70;103729.44;5035593;27;96541;-28
2023/01/25 08:32:05;;;;;;;3.40;2.83;;;;;;;0.13;88.42;103704.50;5035601;28;96934;-29
2023/01/25 08:34:31;;;;;;;1.63;1.17;;;;;;;0.16;88.37;103706.34;5034487;27;99331;-28
2023/01/25 08:36:56;;;;;;;3.60;2.22;;;;;;;0.18;88.42;103707.28;5033729;28;98839;-31
2023/01/25 08:39:22;;;;;;;3.45;2.65;;;;;;;0.21;88.57;103712.69;5035688;27;96743;-30
2023/01/25 08:41:47;;;;;;;2.70;2.42;;;;;;;0.22;88.86;103709.19;5035454;28;96764;-33
2023/01/25 08:44:12;;;;;;;3.17;2.45;;;;;;;0.23;88.63;103713.66;5035198;27;98336;-31
2023/01/25 08:46:38;;;;;;;2.95;2.40;;;;;;;0.20;88.05;103703.81;5035024;28;97613;-31
2023/01/25 08:49:03;;;;;;;2.47;2.00;;;;;;;0.17;87.87;103708.16;5035421;27;96590;-31
2023/01/25 08:51:30;;;;;;;8.25;2.58;;;;;;;0.20;88.20;103702.91;5033956;28;96805;-30
2023/01/25 08:53:56;;;;;;;2.38;2.00;;;;;;;0.21;88.17;103696.69;5034551;28;99047;-28
2023/01/25 08:56:21;;;;;;;2.53;2.33;;;;;;;0.21;88.26;103702.03;5034842;28;97333;-28
2023/01/25 08:58:50;;;;;;;3.45;2.38;;;;;;;0.18;88.10;103704.63;5034655;28;96455;-28
2023/01/25 09:01:17;;;;;;;3.15;2.75;;;;;;;0.17;88.38;103703.72;5033636;28;96679;-28
2023/01/25 09:03:44;;;;;;;2.63;1.95;;;;;;;0.21;88.59;103696.69;5033365;28;100859;-30
2023/01/25 09:06:11;;;;;;;8.98;2.58;;;;;;;0.25;88.36;103700.38;5033226;28;100763;-31
2023/01/25 09:08:39;;;;;;;1.65;1.55;;;;;;;0.25;88.48;103695.94;5033534;28;96697;-31
2023/01/25 09:11:13;;;;;;;5.65;2.95;;;;;;;0.22;88.33;103700.28;5035006;28;96932;-31
2023/01/25 09:13:42;;;;;;;3.03;2.10;;;;;;;0.20;88.08;103695.81;5034889;27;98059;-31
2023/01/25 09:16:13;;;;;;;2.58;2.13;;;;;;;0.25;88.23;103695.03;5033647;28;101204;-31
2023/01/25 09:18:40;;;;;;;4.82;2.97;;;;;;;0.23;88.22;103687.00;5033631;28;96631;-32
2023/01/25 09:21:17;;;;;;;7.47;2.90;;;;;;;0.20;88.23;103685.16;5033497;28;96788;-31
2023/01/25 09:23:43;;;;;;;3.70;2.83;;;;;;;0.24;88.25;103691.47;5031972;28;100926;-31
2023/01/25 09:26:10;;;;;;;5.90;3.95;;;;;;;0.21;88.31;103691.38;5032963;28;101320;-31
2023/01/25 09:28:35;;;;;;;3.63;2.22;;;;;;;0.24;88.44;103682.56;5033397;28;96561;-31
2023/01/25 09:31:04;;;;;;;3.72;2.60;;;;;;;0.25;88.72;103682.59;5034779;28;96765;-31
2023/01/25 09:33:32;;;;;;;2.80;2.15;;;;;;;0.28;88.51;103674.69;5032924;28;101021;-32
2023/01/25 09:35:57;;;;;;;4.88;3.00;;;;;;;0.30;88.60;103674.75;5034072;27;101493;-31
2023/01/25 09:38:24;;;;;;;4.75;2.80;;;;;;;0.32;88.53;103667.69;5038382;28;96456;-33
2023/01/25 09:41:07;;;;;;;6.80;4.75;;;;;;;0.31;88.43;103672.13;5037308;28;96751;-32
2023/01/25 09:43:53;;;;;;;4.50;2.97;;;;;;;0.31;88.52;103669.47;5038196;27;97353;-31
2023/01/25 09:46:39;;;;;;;2.90;2.17;;;;;;;0.34;88.73;103658.88;5037680;28;99295;-31
2023/01/25 09:49:14;;;;;;;3.30;2.47;;;;;;;0.37;88.34;103660.72;5036264;28;96634;-31
2023/01/25 09:51:48;;;;;;;4.03;3.08;;;;;;;0.40;88.41;103661.69;5037853;28;96757;-30
2023/01/25 09:54:17;;;;;;;4.38;2.85;;;;;;;0.35;88.23;103651.75;5036434;28;100790;-28
2023/01/25 09:56:42;;;;;;;5.35;3.35;;;;;;;0.40;88.28;103664.34;5036258;28;100701;-28
2023/01/25 09:59:15;;;;;;;6.47;3.33;;;;;;;0.36;88.37;103653.59;5038016;27;96577;-28
2023/01/25 10:01:52;;;;;;;2.00;1.83;;;;;;;0.33;88.06;103654.38;5036623;28;96779;-28
2023/01/25 10:04:20;;;;;;;3.75;2.90;;;;;;;0.34;88.25;103648.19;5037812;28;97450;-29
2023/01/25 10:06:50;;;;;;;6.07;4.10;;;;;;;0.35;88.63;103641.09;5036410;28;100837;-29
2023/01/25 10:09:25;;;;;;;2.85;2.65;;;;;;;0.33;88.39;103638.38;5036472;28;96584;-28
2023/01/25 10:11:50;;;;;;;5.20;3.58;;;;;;;0.37;88.43;103636.72;5037699;28;96600;-28
2023/01/25 10:14:18;;;;;;;3.70;3.20;;;;;;;0.40;88.40;103628.78;5037126;27;97350;-29
2023/01/25 10:16:46;;;;;;;2.58;1.70;;;;;;;0.45;88.24;103627.13;5037261;28;99168;-28
2023/01/25 10:19:52;;;;;;;3.80;2.50;;;;;;;0.33;88.32;103624.16;5038172;28;96523;-30
2023/01/25 10:22:28;;;;;;;5.43;3.22;;;;;;;0.28;88.64;103623.16;4995845;28;97004;-29
2023/01/25 10:25:05;;;;;;;4.78;3.53;;;;;;;0.30;88.89;103619.66;5035356;28;100749;-29
2023/01/25 10:27:42;;;;;;;3.38;2.45;;;;;;;0.29;88.89;103606.31;5035775;28;100928;-28
2023/01/25 10:30:34;;;;;;;3.88;2.38;;;;;;;0.26;88.77;103609.75;5037658;27;96625;-30
2023/01/25 10:33:06;;;;;;;4.28;3.40;;;;;;;0.16;88.68;103597.06;5037631;28;96782;-28
2023/01/25 10:35:36;;;;;;;5.15;4.28;;;;;;;0.17;88.73;103601.56;5037058;27;99320;-28
2023/01/25 10:38:22;;;;;;;5.43;3.60;;;;;;;0.22;89.01;103601.69;5035722;28;99093;-29
2023/01/25 10:40:55;;;;;;;3.67;2.22;;;;;;;0.29;89.09;103596.53;5036968;28;96595;-28
2023/01/25 10:43:21;;;;;;;3.00;2.25;;;;;;;0.35;88.77;103601.13;5035891;28;96789;-29
2023/01/25 10:45:49;;;;;;;9.07;3.35;;;;;;;0.29;88.80;103590.31;5035445;28;101002;-29
2023/01/25 10:48:28;;;;;;;4.43;3.22;;;;;;;0.23;88.27;103592.81;5036106;28;99187;-28
2023/01/25 10:50:56;;;;;;;2.25;1.58;;;;;;;0.14;88.23;103589.06;5037093;27;96482;-28
2023/01/25 10:53:42;;;;;;;5.10;3.80;;;;;;;0.19;88.66;103589.16;5036820;28;96810;-28
2023/01/25 10:56:18;;;;;;;2.92;2.50;;;;;;;0.20;88.42;103574.97;5036769;27;99450;-29
2023/01/25 10:58:46;;;;;;;2.97;2.28;;;;;;;0.24;88.85;103571.53;5037085;28;98834;-28
2023/01/25 11:01:28;;;;;;;4.55;3.60;;;;;;;0.30;88.82;103574.34;5035462;28;96527;-29
2023/01/25 11:03:54;;;;;;;3.72;1.52;;;;;;;0.27;88.28;103557.38;5035767;28;96759;-30
2023/01/25 11:06:37;;;;;;;3.03;2.42;;;;;;;0.23;87.97;103545.72;5036265;28;98038;-28
2023/01/25 11:09:20;;;;;;;3.40;3.08;;;;;;;0.25;88.46;103544.00;5035115;28;100776;-28
2023/01/25 11:11:59;;;;;;;3.58;3.05;;;;;;;0.24;88.41;103534.22;5037081;27;96524;-28
2023/01/25 11:14:26;;;;;;;4.20;3.35;;;;;;;0.26;88.43;103529.81;5036570;28;96764;-29
2023/01/25 11:16:54;;;;;;;3.67;3.35;;;;;;;0.23;88.50;103516.41;5034919;28;100963;-28
2023/01/25 11:19:39;;;;;;;2.88;2.55;;;;;;;0.33;89.03;103529.09;5034973;28;101102;-29
2023/01/25 11:22:18;;;;;;;3.08;2.30;;;;;;;0.37;88.49;103522.09;5035180;28;96668;-30
2023/01/25 11:24:44;;;;;;;4.18;2.83;;;;;;;0.34;88.58;103522.00;5035007;28;96773;-28
2023/01/25 11:27:16;;;;;;;4.95;3.92;;;;;;;0.36;88.63;103520.28;5036246;27;97342;-28
2023/01/25 11:29:41;;;;;;;4.65;2.63;;;;;;;0.39;88.64;103510.59;5036105;28;97899;-28
2023/01/25 11:32:21;;;;;;;3.63;2.70;;;;;;;0.40;88.67;103492.81;5035846;27;96559;-28
2023/01/25 11:34:49;;;;;;;2.92;2.22;;;;;;;0.43;88.20;103492.91;5034966;28;96792;-29
2023/01/25 11:37:35;;;;;;;2.53;2.17;;;;;;;0.48;88.17;103488.59;5034650;28;101335;-28
2023/01/25 11:40:26;;;;;;;3.03;2.42;;;;;;;0.46;87.98;103474.31;5034738;28;100781;-28
2023/01/25 11:43:15;;;;;;;1.73;1.55;;;;;;;0.45;88.13;103460.94;5034983;28;96701;-29